Time;durP1;ratioP1;P1;durP2;ratioP2;P2;SDS_P1;SDS_P2;PMS_P1;PMS_P2;Temp;Humidity;BMP_temperature;BMP_pressure;BME280_temperature;BME280_humidity;BME280_pressure;Samples;Min_cycle;Max_cycle;Signal;HPM_P1;HPM_P2
2023/04/18 00:01:43;;;;;;;32.13;21.20;;;5.20;99.90;;;;;;5013277;28;20301;-78
2023/04/18 00:04:12;;;;;;;29.70;19.67;;;5.20;99.90;;;;;;5018832;28;20231;-77
2023/04/18 00:06:38;;;;;;;31.47;22.00;;;5.20;99.90;;;;;;5013463;28;20229;-77
2023/04/18 00:09:05;;;;;;;31.70;21.37;;;5.20;99.90;;;;;;5019982;28;20655;-78
2023/04/18 00:11:33;;;;;;;33.67;23.13;;;5.30;99.90;;;;;;5015342;28;20759;-77
2023/04/18 00:14:00;;;;;;;33.37;22.50;;;5.30;99.90;;;;;;5018454;28;20276;-77
2023/04/18 00:16:27;;;;;;;39.63;23.93;;;5.20;99.90;;;;;;5013995;28;20311;-77
2023/04/18 00:18:56;;;;;;;36.70;24.13;;;5.30;99.90;;;;;;5022589;28;20941;-77
2023/04/18 00:21:24;;;;;;;37.77;25.77;;;5.30;99.90;;;;;;5016516;28;20231;-78
2023/04/18 00:23:51;;;;;;;39.27;25.10;;;5.30;99.90;;;;;;5021353;28;20584;-78
2023/04/18 00:26:18;;;;;;;37.10;26.07;;;5.20;99.90;;;;;;5020910;28;20778;-77
2023/04/18 00:28:47;;;;;;;38.20;26.20;;;5.20;99.90;;;;;;5021105;28;20291;-77
2023/04/18 00:31:14;;;;;;;39.87;25.53;;;5.20;99.90;;;;;;5021127;28;20228;-77
2023/04/18 00:33:41;;;;;;;37.47;25.10;;;5.20;99.90;;;;;;5021089;28;20229;-78
2023/04/18 00:36:08;;;;;;;43.43;25.87;;;5.20;99.90;;;;;;5023480;28;20228;-77
2023/04/18 00:38:37;;;;;;;36.67;24.80;;;5.20;99.90;;;;;;5013681;28;20772;-78
2023/04/18 00:41:04;;;;;;;38.60;26.13;;;5.10;99.90;;;;;;5020447;28;20232;-77
2023/04/18 00:43:33;;;;;;;39.67;26.07;;;5.10;99.90;;;;;;5020178;28;20234;-77
2023/04/18 00:46:00;;;;;;;36.50;25.17;;;5.10;99.90;;;;;;5021968;28;20321;-78
2023/04/18 00:48:27;;;;;;;37.73;25.73;;;5.00;99.90;;;;;;5019236;28;20233;-77
2023/04/18 00:50:54;;;;;;;35.00;24.87;;;5.00;99.90;;;;;;5018385;28;20217;-77
2023/04/18 00:53:21;;;;;;;37.23;25.80;;;5.00;99.90;;;;;;5020443;28;20594;-77
2023/04/18 00:55:50;;;;;;;40.40;25.87;;;5.00;99.90;;;;;;5006473;28;20247;-77
2023/04/18 00:58:17;;;;;;;40.70;25.83;;;4.90;99.90;;;;;;5014933;28;20228;-77
2023/04/18 01:00:44;;;;;;;38.27;25.50;;;4.90;99.90;;;;;;5016959;28;20251;-77
2023/04/18 01:03:13;;;;;;;38.07;24.93;;;4.90;99.90;;;;;;5020596;28;20221;-77
2023/04/18 01:05:40;;;;;;;38.23;25.07;;;4.90;99.90;;;;;;5018608;28;20217;-77
2023/04/18 01:08:07;;;;;;;41.70;25.57;;;4.80;99.90;;;;;;5019650;28;20233;-77
2023/04/18 01:10:36;;;;;;;38.63;26.10;;;4.80;99.90;;;;;;5039011;28;20225;-77
2023/04/18 01:13:15;;;;;;;40.93;27.27;;;4.80;99.90;;;;;;5033945;28;20796;-77
2023/04/18 01:15:43;;;;;;;40.70;25.57;;;4.70;99.90;;;;;;5019668;28;20247;-77
2023/04/18 01:18:10;;;;;;;38.47;26.57;;;4.80;99.90;;;;;;5016688;28;20832;-77
2023/04/18 01:20:40;;;;;;;40.03;26.70;;;4.70;99.90;;;;;;5016244;28;20759;-77
2023/04/18 01:23:06;;;;;;;41.80;25.40;;;4.70;99.90;;;;;;5017371;28;20235;-77
2023/04/18 01:25:36;;;;;;;37.20;24.77;;;4.70;99.90;;;;;;5017143;28;20221;-77
2023/04/18 01:28:03;;;;;;;38.70;25.17;;;4.60;99.90;;;;;;5022664;28;20233;-77
2023/04/18 01:30:30;;;;;;;36.30;24.83;;;4.60;99.90;;;;;;5021024;28;20231;-77
2023/04/18 01:32:58;;;;;;;38.07;25.03;;;4.60;99.90;;;;;;5018703;28;20233;-77
2023/04/18 01:35:27;;;;;;;42.00;24.97;;;4.60;99.90;;;;;;5016608;28;20615;-77
2023/04/18 01:37:57;;;;;;;38.37;24.73;;;4.60;99.90;;;;;;5022241;28;20777;-77
2023/04/18 01:40:24;;;;;;;34.70;24.20;;;4.50;99.90;;;;;;5015854;28;24916;-77
2023/04/18 01:42:54;;;;;;;36.43;25.23;;;4.50;99.90;;;;;;5013014;28;20241;-76
2023/04/18 01:45:22;;;;;;;36.67;23.93;;;4.50;99.90;;;;;;5016481;28;20245;-77
2023/04/18 01:47:49;;;;;;;37.27;24.90;;;4.50;99.90;;;;;;5016194;28;20350;-76
2023/04/18 01:50:16;;;;;;;34.90;23.67;;;4.50;99.90;;;;;;5015500;28;20279;-78
2023/04/18 01:52:43;;;;;;;36.80;24.20;;;4.50;99.90;;;;;;5018199;28;20691;-77
2023/04/18 01:55:10;;;;;;;37.93;25.17;;;4.40;99.90;;;;;;5038430;28;20231;-77
2023/04/18 01:57:37;;;;;;;35.27;23.80;;;4.40;99.90;;;;;;5013856;28;20229;-77
2023/04/18 02:00:07;;;;;;;33.80;23.40;;;4.40;99.90;;;;;;5016450;28;20322;-76
2023/04/18 02:02:43;;;;;;;36.87;23.90;;;4.40;99.90;;;;;;5039966;28;20226;-77
2023/04/18 02:05:09;;;;;;;35.30;23.73;;;4.40;99.90;;;;;;5020650;28;20220;-78
2023/04/18 02:07:39;;;;;;;38.53;24.37;;;4.30;99.90;;;;;;5016537;28;20234;-77
2023/04/18 02:10:08;;;;;;;33.53;23.30;;;4.30;99.90;;;;;;5018598;28;20621;-78
2023/04/18 02:12:35;;;;;;;39.13;24.23;;;4.30;99.90;;;;;;5040886;28;20279;-77
2023/04/18 02:15:02;;;;;;;33.90;22.47;;;4.20;99.90;;;;;;5013979;28;20229;-77
2023/04/18 02:17:30;;;;;;;35.97;23.30;;;4.20;99.90;;;;;;5023381;28;20231;-77
2023/04/18 02:19:57;;;;;;;36.70;24.27;;;4.20;99.90;;;;;;5021515;28;20313;-77
2023/04/18 02:22:24;;;;;;;34.43;23.70;;;4.20;99.90;;;;;;5037402;28;20240;-77
2023/04/18 02:24:51;;;;;;;31.27;21.53;;;4.10;99.90;;;;;;5034979;28;20229;-77
2023/04/18 02:27:18;;;;;;;34.90;23.17;;;4.10;99.90;;;;;;5018225;28;20290;-77
2023/04/18 02:29:45;;;;;;;37.37;23.50;;;4.10;99.90;;;;;;5043030;28;20226;-78
2023/04/18 02:32:11;;;;;;;36.60;24.00;;;4.10;99.90;;;;;;5021825;28;20972;-76
2023/04/18 02:34:39;;;;;;;35.77;23.00;;;4.00;99.90;;;;;;5025379;28;20353;-77
2023/04/18 02:37:06;;;;;;;32.27;22.77;;;4.00;99.90;;;;;;5031949;28;20225;-78
2023/04/18 02:39:33;;;;;;;38.70;25.20;;;4.00;99.90;;;;;;5036807;28;20236;-77
2023/04/18 02:42:00;;;;;;;37.53;24.03;;;4.00;99.90;;;;;;5041326;28;20913;-77
2023/04/18 02:44:27;;;;;;;35.53;24.13;;;3.90;99.90;;;;;;5038287;28;20688;-77
2023/04/18 02:46:54;;;;;;;36.80;23.80;;;3.90;99.90;;;;;;5010096;28;20756;-76
2023/04/18 02:49:21;;;;;;;39.60;24.73;;;3.80;99.90;;;;;;5019776;28;20227;-77
2023/04/18 02:51:50;;;;;;;43.07;26.03;;;3.80;99.90;;;;;;5024434;28;20290;-76
2023/04/18 02:54:17;;;;;;;40.87;25.87;;;3.70;99.90;;;;;;5042290;28;20310;-76
2023/04/18 02:56:55;;;;;;;39.93;25.97;;;3.70;99.90;;;;;;5017510;28;20272;-77
2023/04/18 02:59:25;;;;;;;40.70;26.27;;;3.70;99.90;;;;;;5015164;28;20237;-76
2023/04/18 03:02:05;;;;;;;41.87;26.73;;;3.70;99.90;;;;;;5023184;28;20737;-77
2023/04/18 03:04:33;;;;;;;42.67;26.43;;;3.60;99.90;;;;;;5012491;28;20326;-77
2023/04/18 03:07:05;;;;;;;43.07;26.13;;;3.60;99.90;;;;;;5022334;28;20722;-77
2023/04/18 03:09:36;;;;;;;41.13;27.60;;;3.50;99.90;;;;;;5018467;28;20222;-78
2023/04/18 03:12:08;;;;;;;36.97;24.53;;;3.50;99.90;;;;;;5022512;28;20250;-77
2023/04/18 03:14:36;;;;;;;37.50;25.17;;;3.50;99.90;;;;;;5013705;28;20314;-77
2023/04/18 03:17:03;;;;;;;46.97;28.47;;;3.50;99.90;;;;;;5019877;28;20224;-77
2023/04/18 03:19:36;;;;;;;41.77;25.97;;;3.40;99.90;;;;;;5018720;28;20234;-77
2023/04/18 03:22:09;;;;;;;40.90;25.73;;;3.40;99.90;;;;;;5014373;28;20299;-77
2023/04/18 03:24:40;;;;;;;37.90;24.83;;;3.40;99.90;;;;;;5032182;28;20225;-77
2023/04/18 03:27:08;;;;;;;39.70;25.90;;;3.40;99.90;;;;;;5033868;28;20273;-77
2023/04/18 03:29:37;;;;;;;41.63;25.63;;;3.40;99.90;;;;;;5033146;28;20222;-78
2023/04/18 03:32:05;;;;;;;43.77;31.87;;;3.40;99.90;;;;;;5027688;28;20231;-77
2023/04/18 03:34:32;;;;;;;40.00;25.17;;;3.30;99.90;;;;;;5015552;28;20222;-77
2023/04/18 03:37:00;;;;;;;36.73;23.17;;;3.30;99.90;;;;;;5036883;28;20271;-77
2023/04/18 03:39:29;;;;;;;38.37;23.90;;;3.30;99.90;;;;;;5007688;28;20226;-78
2023/04/18 03:41:57;;;;;;;37.60;24.07;;;3.30;99.90;;;;;;5038450;28;20217;-77
2023/04/18 03:44:24;;;;;;;41.40;23.53;;;3.30;99.90;;;;;;5037630;28;20239;-77
2023/04/18 03:46:51;;;;;;;35.37;22.67;;;3.30;99.90;;;;;;5011448;28;20238;-77
2023/04/18 03:49:18;;;;;;;35.97;24.13;;;3.30;99.90;;;;;;5015677;28;20231;-77
2023/04/18 03:51:47;;;;;;;34.90;22.83;;;3.20;99.90;;;;;;5021711;28;20237;-78
2023/04/18 03:54:14;;;;;;;33.77;21.80;;;3.20;99.90;;;;;;5012438;28;20299;-78
2023/04/18 03:56:42;;;;;;;37.60;23.70;;;3.20;99.90;;;;;;5020651;28;20232;-77
2023/04/18 03:59:10;;;;;;;35.40;23.07;;;3.20;99.90;;;;;;5013408;28;20265;-77
2023/04/18 04:01:37;;;;;;;35.30;23.03;;;3.20;99.90;;;;;;5032217;28;20260;-77
2023/04/18 04:04:04;;;;;;;36.97;22.30;;;3.20;99.90;;;;;;5016562;28;20229;-77
2023/04/18 04:06:31;;;;;;;36.33;21.53;;;3.20;99.90;;;;;;5018324;28;20251;-77
2023/04/18 04:09:00;;;;;;;33.23;21.20;;;3.20;99.90;;;;;;5025124;28;20231;-76
2023/04/18 04:11:29;;;;;;;34.23;22.50;;;3.10;99.90;;;;;;5023555;28;20224;-77
2023/04/18 04:13:57;;;;;;;38.17;23.97;;;3.10;99.90;;;;;;5024599;28;20220;-76
2023/04/18 04:16:29;;;;;;;33.93;22.97;;;3.10;99.90;;;;;;5021626;28;20876;-78
2023/04/18 04:18:56;;;;;;;34.27;21.70;;;3.10;99.90;;;;;;5015868;28;20287;-75
2023/04/18 04:21:30;;;;;;;33.73;21.57;;;3.10;99.90;;;;;;5021072;28;20218;-76
2023/04/18 04:23:57;;;;;;;32.70;21.57;;;3.10;99.90;;;;;;5032093;28;20216;-77
2023/04/18 04:26:31;;;;;;;31.10;21.00;;;3.10;99.90;;;;;;5024520;28;20224;-78
2023/04/18 04:29:04;;;;;;;35.37;21.60;;;3.00;99.90;;;;;;5020874;28;20229;-78
2023/04/18 04:31:33;;;;;;;35.60;22.70;;;3.00;99.90;;;;;;5026083;28;20221;-78
2023/04/18 04:34:00;;;;;;;28.27;19.10;;;3.00;99.90;;;;;;5024803;28;20295;-79
2023/04/18 04:36:27;;;;;;;32.23;20.80;;;3.00;99.90;;;;;;5031879;28;20272;-79
2023/04/18 04:38:56;;;;;;;35.40;20.47;;;3.00;99.90;;;;;;5023910;28;20229;-80
2023/04/18 04:41:31;;;;;;;33.40;20.00;;;3.00;99.90;;;;;;5026698;28;20232;-76
2023/04/18 04:43:58;;;;;;;31.93;19.30;;;3.00;99.90;;;;;;5023212;28;20821;-76
2023/04/18 04:46:32;;;;;;;29.60;18.40;;;3.00;99.90;;;;;;5012928;28;20217;-77
2023/04/18 04:49:00;;;;;;;30.53;18.33;;;3.00;99.90;;;;;;5018187;28;20232;-77
2023/04/18 04:51:27;;;;;;;30.80;17.90;;;3.10;99.90;;;;;;5024873;28;20232;-78
2023/04/18 04:53:54;;;;;;;27.73;16.33;;;3.10;99.90;;;;;;5020878;28;20276;-77
2023/04/18 04:56:21;;;;;;;27.97;16.80;;;3.20;99.90;;;;;;5036896;28;20237;-78
2023/04/18 04:58:49;;;;;;;23.40;14.60;;;3.20;99.90;;;;;;5015338;28;20232;-77
2023/04/18 05:01:21;;;;;;;25.27;15.90;;;3.20;99.90;;;;;;5022856;28;20267;-78
2023/04/18 05:03:51;;;;;;;21.90;13.77;;;3.30;99.90;;;;;;5042785;28;20218;-78
2023/04/18 05:06:19;;;;;;;21.90;14.57;;;3.30;99.90;;;;;;5027493;28;20219;-77
2023/04/18 05:08:46;;;;;;;22.00;14.00;;;3.40;99.90;;;;;;5023143;28;20279;-77
2023/04/18 05:11:13;;;;;;;22.03;14.13;;;3.40;99.90;;;;;;5038442;28;20311;-77
2023/04/18 05:13:40;;;;;;;21.67;12.90;;;3.50;99.90;;;;;;5027701;28;20278;-77
2023/04/18 05:16:07;;;;;;;20.73;13.70;;;3.60;99.90;;;;;;5028410;28;20310;-80
2023/04/18 05:18:36;;;;;;;20.40;12.13;;;3.60;99.90;;;;;;5021235;28;20286;-80
2023/04/18 05:21:04;;;;;;;22.00;13.97;;;3.70;99.90;;;;;;5018980;28;20305;-80
2023/04/18 05:23:32;;;;;;;19.10;12.33;;;3.80;99.90;;;;;;5029467;28;20228;-80
2023/04/18 05:25:59;;;;;;;19.47;12.90;;;3.80;99.90;;;;;;5028265;28;20225;-80
2023/04/18 05:28:26;;;;;;;18.13;11.53;;;3.90;99.90;;;;;;5041594;28;20745;-80
2023/04/18 05:30:59;;;;;;;20.60;12.17;;;4.00;99.90;;;;;;5030225;28;20229;-79
2023/04/18 05:33:26;;;;;;;15.97;11.27;;;4.00;99.90;;;;;;5025665;28;21041;-80
2023/04/18 05:35:53;;;;;;;16.63;10.47;;;4.10;99.90;;;;;;5036058;28;20214;-80
2023/04/18 05:38:21;;;;;;;17.43;11.63;;;4.20;99.90;;;;;;5035069;28;20908;-80
2023/04/18 05:40:49;;;;;;;19.43;11.33;;;4.20;99.90;;;;;;5037533;28;20520;-80
2023/04/18 05:43:17;;;;;;;15.13;10.70;;;4.30;99.90;;;;;;5023245;28;20248;-80
2023/04/18 05:45:44;;;;;;;15.93;10.40;;;4.30;99.90;;;;;;5028083;28;20217;-81
2023/04/18 05:48:10;;;;;;;15.77;10.20;;;4.40;99.90;;;;;;5038568;28;20887;-80
2023/04/18 05:50:37;;;;;;;15.23;10.07;;;4.50;99.90;;;;;;5028058;28;20284;-79
2023/04/18 05:53:04;;;;;;;15.13;9.87;;;4.60;99.90;;;;;;5034908;28;20228;-79
2023/04/18 05:55:33;;;;;;;17.93;12.47;;;4.60;99.90;;;;;;5039314;28;20229;-79
2023/04/18 05:58:00;;;;;;;18.57;10.00;;;4.70;99.90;;;;;;5035505;28;20483;-79
2023/04/18 06:00:26;;;;;;;17.60;10.03;;;4.70;99.90;;;;;;5022285;28;20775;-79
2023/04/18 06:02:53;;;;;;;14.97;10.27;;;4.80;99.90;;;;;;5016432;28;20240;-79
2023/04/18 06:05:20;;;;;;;15.40;10.00;;;4.90;99.90;;;;;;5037069;28;20410;-80
2023/04/18 06:07:46;;;;;;;14.67;9.57;;;5.00;99.90;;;;;;5031044;28;20689;-79
2023/04/18 06:10:14;;;;;;;15.60;9.67;;;5.00;99.90;;;;;;5033069;28;20229;-80
2023/04/18 06:12:42;;;;;;;19.00;10.60;;;5.10;99.90;;;;;;5030679;28;20226;-80
2023/04/18 06:15:10;;;;;;;14.67;9.17;;;5.20;99.90;;;;;;5027280;28;20252;-79
2023/04/18 06:17:37;;;;;;;14.40;9.87;;;5.30;99.90;;;;;;5032895;28;20254;-80
2023/04/18 06:20:05;;;;;;;14.63;9.60;;;5.50;99.90;;;;;;5028777;28;20237;-78
2023/04/18 06:22:32;;;;;;;14.60;9.67;;;5.50;99.90;;;;;;5021115;28;20255;-78
2023/04/18 06:24:59;;;;;;;18.67;9.80;;;5.60;99.90;;;;;;5030422;28;20227;-77
2023/04/18 06:27:26;;;;;;;11.93;8.80;;;5.70;99.90;;;;;;5030962;28;20729;-78
2023/04/18 06:29:54;;;;;;;14.40;9.13;;;5.90;99.90;;;;;;5031156;28;20229;-78
2023/04/18 06:32:21;;;;;;;11.50;8.73;;;6.00;99.90;;;;;;5028718;28;20217;-78
2023/04/18 06:34:48;;;;;;;14.23;8.83;;;6.10;99.90;;;;;;5025265;28;20247;-78
2023/04/18 06:37:14;;;;;;;13.23;8.60;;;6.20;99.90;;;;;;5027941;28;20289;-78
2023/04/18 06:39:41;;;;;;;12.47;8.60;;;6.30;99.90;;;;;;5029813;28;20229;-78
2023/04/18 06:42:08;;;;;;;12.47;9.10;;;6.40;99.90;;;;;;5026446;28;20229;-78
2023/04/18 06:44:42;;;;;;;11.50;8.80;;;6.50;99.90;;;;;;5029450;28;20241;-78
2023/04/18 06:47:11;;;;;;;13.27;8.77;;;6.60;99.90;;;;;;5027725;28;20226;-77
2023/04/18 06:49:37;;;;;;;13.40;8.43;;;6.70;99.90;;;;;;5021261;28;20666;-77
2023/04/18 06:52:04;;;;;;;12.33;8.83;;;6.70;99.90;;;;;;5026114;28;20255;-77
2023/04/18 06:54:31;;;;;;;15.53;8.63;;;6.80;99.90;;;;;;5027133;28;20232;-78
2023/04/18 06:56:57;;;;;;;15.13;9.70;;;6.80;99.90;;;;;;5026412;28;20275;-77
2023/04/18 06:59:24;;;;;;;14.43;9.43;;;6.90;99.90;;;;;;5025875;28;20239;-77
2023/04/18 07:01:51;;;;;;;16.00;9.60;;;6.90;99.90;;;;;;5028034;28;20226;-79
2023/04/18 07:04:19;;;;;;;13.33;8.63;;;7.00;99.90;;;;;;5035008;28;20293;-78
2023/04/18 07:06:46;;;;;;;12.63;8.23;;;7.10;99.90;;;;;;5029935;28;20219;-78
2023/04/18 07:09:12;;;;;;;14.07;8.90;;;7.20;99.90;;;;;;5035783;28;20257;-77
2023/04/18 07:11:39;;;;;;;14.10;8.90;;;7.30;99.90;;;;;;5029586;28;20390;-79
2023/04/18 07:14:06;;;;;;;12.03;8.53;;;7.40;99.90;;;;;;5036586;28;20235;-78
2023/04/18 07:16:32;;;;;;;13.43;8.43;;;7.50;99.90;;;;;;5031605;28;20233;-79
2023/04/18 07:18:59;;;;;;;16.43;9.03;;;7.60;99.90;;;;;;5028531;28;20595;-79
2023/04/18 07:21:27;;;;;;;17.87;9.67;;;7.80;99.90;;;;;;5022187;28;20226;-78
2023/04/18 07:23:54;;;;;;;13.23;9.40;;;8.00;99.90;;;;;;5025213;28;20326;-79
2023/04/18 07:26:21;;;;;;;11.93;8.27;;;8.10;99.90;;;;;;5034492;28;20227;-78
2023/04/18 07:28:49;;;;;;;10.53;8.30;;;8.40;99.90;;;;;;5025363;28;20338;-79
2023/04/18 07:31:15;;;;;;;12.87;7.87;;;8.70;99.90;;;;;;5029926;28;20252;-78
2023/04/18 07:33:42;;;;;;;14.50;7.93;;;8.90;99.90;;;;;;5030875;28;20220;-79
2023/04/18 07:36:09;;;;;;;13.67;8.90;;;9.20;99.90;;;;;;5033646;28;20224;-78
2023/04/18 07:38:37;;;;;;;10.83;7.93;;;9.30;99.90;;;;;;5025154;28;20632;-79
2023/04/18 07:41:04;;;;;;;12.47;8.00;;;9.50;99.90;;;;;;5025086;28;20230;-78
2023/04/18 07:43:31;;;;;;;12.20;7.33;;;9.70;99.90;;;;;;5026880;28;20237;-79
2023/04/18 07:45:57;;;;;;;11.13;7.90;;;9.80;99.90;;;;;;5025801;28;20214;-79
2023/04/18 07:48:25;;;;;;;10.87;7.40;;;9.90;99.90;;;;;;5024450;28;20228;-77
2023/04/18 07:50:51;;;;;;;11.60;7.60;;;10.20;99.90;;;;;;5044322;28;20652;-79
2023/04/18 07:53:18;;;;;;;12.67;7.53;;;10.50;99.90;;;;;;5025044;28;20238;-79
2023/04/18 07:55:46;;;;;;;11.00;6.93;;;10.80;99.90;;;;;;5029324;28;20224;-79
2023/04/18 07:58:13;;;;;;;11.53;7.43;;;11.20;99.90;;;;;;5031579;28;20284;-79
2023/04/18 08:00:41;;;;;;;12.30;7.40;;;11.50;99.90;;;;;;5019154;28;20303;-79
2023/04/18 08:03:10;;;;;;;8.60;6.87;;;11.70;99.90;;;;;;5020877;28;20224;-78
2023/04/18 08:05:37;;;;;;;11.73;7.23;;;11.90;99.80;;;;;;5032763;28;20232;-78
2023/04/18 08:08:05;;;;;;;10.63;6.53;;;12.00;99.30;;;;;;5034643;28;20232;-78
2023/04/18 08:10:32;;;;;;;9.00;6.43;;;12.10;98.80;;;;;;5031556;28;20236;-79
2023/04/18 08:13:00;;;;;;;10.33;6.53;;;12.20;98.90;;;;;;5022321;28;20229;-79
2023/04/18 08:15:27;;;;;;;11.87;7.03;;;12.30;98.60;;;;;;5023256;28;20232;-79
2023/04/18 08:17:54;;;;;;;13.73;7.07;;;12.60;99.20;;;;;;5025157;28;20226;-78
2023/04/18 08:20:21;;;;;;;9.40;7.07;;;13.00;99.00;;;;;;5026556;28;20233;-78
2023/04/18 08:22:48;;;;;;;9.97;6.63;;;13.40;98.80;;;;;;5023396;28;20225;-77
2023/04/18 08:25:14;;;;;;;9.27;6.97;;;13.90;98.20;;;;;;5020432;28;20241;-79
2023/04/18 08:27:42;;;;;;;7.50;6.40;;;14.30;96.90;;;;;;5017389;28;20233;-77
2023/04/18 08:30:11;;;;;;;9.90;6.50;;;14.60;95.90;;;;;;5024177;28;20230;-78
2023/04/18 08:32:37;;;;;;;10.77;7.30;;;14.60;95.40;;;;;;5024426;28;20697;-77
2023/04/18 08:35:05;;;;;;;9.23;7.17;;;14.50;95.10;;;;;;5024358;28;20272;-78
2023/04/18 08:37:34;;;;;;;12.70;7.27;;;14.30;94.00;;;;;;5023024;28;20225;-78
2023/04/18 08:40:00;;;;;;;9.07;7.17;;;14.10;94.60;;;;;;5023540;28;20714;-76
2023/04/18 08:42:27;;;;;;;11.10;7.30;;;13.70;94.20;;;;;;5018990;28;20241;-77
2023/04/18 08:44:54;;;;;;;8.20;6.70;;;13.40;94.80;;;;;;5025517;28;20235;-76
2023/04/18 08:47:22;;;;;;;9.63;7.00;;;13.00;95.30;;;;;;5022188;28;20285;-78
2023/04/18 08:49:51;;;;;;;11.20;7.13;;;12.80;95.90;;;;;;5021582;28;20226;-78
2023/04/18 08:52:17;;;;;;;9.77;6.83;;;12.60;96.30;;;;;;5029558;28;20708;-78
2023/04/18 08:54:46;;;;;;;10.23;7.30;;;12.50;96.50;;;;;;5020846;28;20231;-78
2023/04/18 08:57:15;;;;;;;9.77;7.50;;;12.50;96.70;;;;;;5018938;28;20754;-78
2023/04/18 08:59:44;;;;;;;9.00;7.07;;;12.50;96.10;;;;;;5020206;28;20692;-77
2023/04/18 09:02:11;;;;;;;10.00;7.90;;;12.40;95.80;;;;;;5023695;28;20222;-78
2023/04/18 09:04:43;;;;;;;10.40;8.07;;;12.40;96.00;;;;;;5026612;28;20236;-77
2023/04/18 09:07:12;;;;;;;10.20;7.03;;;12.30;96.30;;;;;;5027201;28;20743;-77
2023/04/18 09:09:43;;;;;;;8.70;6.97;;;12.20;96.20;;;;;;5024876;28;20264;-78
2023/04/18 09:12:13;;;;;;;10.37;7.00;;;12.10;96.60;;;;;;5020565;28;20692;-78
2023/04/18 09:14:41;;;;;;;9.50;6.73;;;12.10;96.80;;;;;;5025991;28;20217;-77
2023/04/18 09:17:08;;;;;;;10.27;6.73;;;12.20;96.80;;;;;;5028874;28;20238;-78
2023/04/18 09:19:35;;;;;;;9.63;6.60;;;12.20;96.60;;;;;;5030204;28;20230;-79
2023/04/18 09:22:04;;;;;;;8.97;6.33;;;12.20;96.70;;;;;;5022612;28;20577;-78
2023/04/18 09:24:31;;;;;;;10.80;6.30;;;12.30;96.70;;;;;;5027993;28;20230;-79
2023/04/18 09:26:58;;;;;;;8.20;6.10;;;12.40;96.30;;;;;;5026150;28;20258;-78
2023/04/18 09:29:45;;;;;;;7.63;6.67;;;12.30;96.10;;;;;;5032708;28;20235;-79
2023/04/18 09:32:22;;;;;;;7.10;6.00;;;12.20;96.20;;;;;;5019453;28;20247;-78
2023/04/18 09:34:48;;;;;;;11.07;7.43;;;12.20;96.50;;;;;;5026765;28;20229;-78
2023/04/18 09:37:16;;;;;;;9.97;7.37;;;12.10;96.70;;;;;;5028496;28;20673;-79
2023/04/18 09:39:44;;;;;;;10.70;7.07;;;12.00;96.80;;;;;;5021749;28;20231;-78
2023/04/18 09:42:12;;;;;;;8.57;6.07;;;12.00;96.50;;;;;;5020212;28;20227;-78
2023/04/18 09:44:58;;;;;;;9.07;6.17;;;12.00;96.80;;;;;;5021909;28;20708;-78
2023/04/18 09:47:26;;;;;;;8.03;6.27;;;12.00;96.30;;;;;;5023253;28;20998;-79
2023/04/18 09:49:53;;;;;;;7.77;6.07;;;11.90;96.60;;;;;;5024251;28;20992;-79
2023/04/18 09:52:22;;;;;;;7.80;6.17;;;11.90;96.40;;;;;;5023289;28;20229;-79
2023/04/18 09:54:55;;;;;;;6.13;5.20;;;11.80;96.30;;;;;;5022264;28;20230;-79
2023/04/18 09:57:26;;;;;;;8.10;5.43;;;11.70;96.40;;;;;;5020472;28;20227;-77
2023/04/18 09:59:59;;;;;;;7.37;5.57;;;11.70;96.60;;;;;;5025206;28;20229;-78
2023/04/18 10:02:28;;;;;;;7.60;5.80;;;11.70;96.50;;;;;;5024880;28;20282;-78
2023/04/18 10:04:59;;;;;;;8.10;4.70;;;11.80;96.80;;;;;;5025397;28;20596;-79
2023/04/18 10:07:27;;;;;;;7.43;3.90;;;11.80;96.50;;;;;;5019947;28;20232;-79
2023/04/18 10:09:54;;;;;;;4.87;3.87;;;11.90;96.40;;;;;;5028561;28;20240;-78
2023/04/18 10:12:20;;;;;;;5.53;4.10;;;11.90;95.60;;;;;;5027304;28;20224;-77
2023/04/18 10:14:47;;;;;;;4.97;4.20;;;11.90;95.70;;;;;;5021147;28;20335;-79
2023/04/18 10:17:14;;;;;;;4.13;3.67;;;11.90;95.50;;;;;;5024503;28;20219;-78
2023/04/18 10:19:44;;;;;;;5.30;3.87;;;12.00;95.60;;;;;;5020359;28;20239;-76
2023/04/18 10:22:12;;;;;;;4.37;3.83;;;12.00;95.70;;;;;;5022958;28;20227;-78
2023/04/18 10:24:52;;;;;;;5.07;4.03;;;12.00;95.40;;;;;;5026832;28;20227;-78
2023/04/18 10:27:39;;;;;;;4.47;3.53;;;12.10;95.00;;;;;;5017365;28;20229;-78
2023/04/18 10:30:07;;;;;;;6.90;4.57;;;12.20;95.50;;;;;;5022831;28;20263;-77
2023/04/18 10:32:34;;;;;;;7.03;4.60;;;12.20;95.40;;;;;;5009537;28;20239;-78
2023/04/18 10:35:00;;;;;;;5.47;4.83;;;12.30;95.50;;;;;;5018852;28;20276;-76
2023/04/18 10:37:27;;;;;;;7.10;4.57;;;12.40;94.40;;;;;;5018927;28;20224;-77
2023/04/18 10:40:01;;;;;;;8.63;5.13;;;12.50;94.40;;;;;;5018870;28;20235;-76
2023/04/18 10:42:57;;;;;;;5.27;4.70;;;12.40;94.30;;;;;;5020344;28;20262;-78
2023/04/18 10:45:25;;;;;;;8.60;5.20;;;12.40;94.40;;;;;;5016518;28;20278;-77
2023/04/18 10:48:24;;;;;;;6.23;5.03;;;12.40;94.70;;;;;;5015767;28;20288;-75
2023/04/18 10:51:14;;;;;;;8.47;5.40;;;12.30;94.80;;;;;;5033661;28;20226;-76
2023/04/18 10:53:48;;;;;;;6.67;5.07;;;12.30;94.60;;;;;;5018265;28;20234;-78
2023/04/18 10:56:16;;;;;;;7.57;5.57;;;12.30;94.80;;;;;;5012725;28;20221;-75
2023/04/18 10:58:50;;;;;;;8.60;5.63;;;12.30;95.00;;;;;;5016970;28;20313;-76
2023/04/18 11:01:25;;;;;;;10.03;5.87;;;12.30;94.90;;;;;;5009498;28;20250;-77
2023/04/18 11:03:52;;;;;;;9.30;5.67;;;12.20;95.00;;;;;;5019112;28;20240;-76
2023/04/18 11:06:20;;;;;;;9.13;6.40;;;12.20;95.30;;;;;;5014082;28;20431;-77
2023/04/18 11:08:47;;;;;;;8.10;5.83;;;12.10;95.40;;;;;;5015353;28;20236;-77
2023/04/18 11:11:13;;;;;;;8.13;6.20;;;12.10;95.40;;;;;;5012501;28;20236;-77
2023/04/18 11:13:55;;;;;;;10.87;6.27;;;12.10;95.90;;;;;;5017882;28;20257;-76
2023/04/18 11:16:30;;;;;;;8.63;6.07;;;12.10;95.50;;;;;;5025734;28;20228;-78
2023/04/18 11:18:56;;;;;;;10.00;5.97;;;12.20;95.80;;;;;;5013998;28;20225;-77
2023/04/18 11:21:26;;;;;;;7.23;6.10;;;12.30;96.10;;;;;;5014892;28;20223;-76
2023/04/18 11:23:53;;;;;;;10.07;6.30;;;12.40;96.00;;;;;;5020551;28;20215;-78
2023/04/18 11:26:20;;;;;;;9.00;6.03;;;12.60;96.10;;;;;;5019478;28;20227;-81
2023/04/18 11:31:24;;;;;;;9.23;6.40;;;13.00;96.20;;;;;;5022093;22;20389;-76
2023/04/18 11:33:51;;;;;;;7.47;5.83;;;13.30;95.80;;;;;;5015963;23;20895;-79
2023/04/18 11:38:46;;;;;;;6.83;5.00;;;13.60;94.90;;;;;;5015541;28;20232;-76
2023/04/18 11:41:14;;;;;;;7.10;5.10;;;13.70;94.40;;;;;;5015213;28;20864;-77
2023/04/18 11:43:43;;;;;;;10.00;6.13;;;13.70;93.80;;;;;;4981831;23;20298;-81
2023/04/18 11:46:10;;;;;;;9.70;5.87;;;13.70;94.30;;;;;;5070384;23;20230;-78
2023/04/18 11:48:40;;;;;;;6.73;5.37;;;13.80;94.20;;;;;;5029594;22;20229;-79
2023/04/18 11:51:07;;;;;;;6.43;4.90;;;13.80;93.90;;;;;;5027098;22;22069;-78
2023/04/18 11:56:02;;;;;;;6.80;5.20;;;13.90;94.10;;;;;;5014293;23;20274;-81
2023/04/18 11:58:32;;;;;;;7.67;5.20;;;13.90;94.10;;;;;;5018796;22;20228;-80
2023/04/18 12:01:00;;;;;;;6.33;5.00;;;13.90;93.90;;;;;;5034906;28;20302;-81
2023/04/18 12:03:28;;;;;;;5.87;5.07;;;13.90;93.50;;;;;;5038050;22;21072;-78
2023/04/18 12:06:00;;;;;;;7.77;5.10;;;13.80;93.30;;;;;;5069714;22;20308;-82
2023/04/18 12:08:27;;;;;;;6.57;5.17;;;13.80;93.20;;;;;;5038952;28;20225;-79
2023/04/18 12:10:54;;;;;;;10.83;5.53;;;13.70;93.30;;;;;;5025316;22;20254;-81
2023/04/18 12:13:25;;;;;;;8.50;6.10;;;13.70;93.10;;;;;;5021459;23;20245;-81
2023/04/18 12:15:52;;;;;;;9.20;5.67;;;13.60;93.20;;;;;;4998886;23;20985;-81
2023/04/18 12:18:20;;;;;;;9.07;5.73;;;13.60;93.40;;;;;;4995331;22;20306;-78
2023/04/18 12:20:50;;;;;;;8.73;5.20;;;13.50;93.30;;;;;;5072749;22;20221;-78
2023/04/18 12:23:33;;;;;;;6.87;4.60;;;13.50;93.40;;;;;;5066191;22;20231;-80
2023/04/18 12:28:35;;;;;;;6.37;4.73;;;13.50;93.80;;;;;;5039883;22;20230;-80
2023/04/18 12:33:53;;;;;;;5.93;4.97;;;13.70;93.30;;;;;;5070918;28;20238;-78
2023/04/18 12:36:22;;;;;;;6.03;4.70;;;13.70;93.10;;;;;;5074910;22;20251;-81
2023/04/18 12:38:53;;;;;;;7.47;5.03;;;13.60;93.20;;;;;;5034822;23;20272;-78
2023/04/18 12:41:20;;;;;;;7.77;5.60;;;13.60;93.40;;;;;;5027565;22;20735;-79
2023/04/18 12:43:46;;;;;;;5.13;4.30;;;13.70;93.40;;;;;;5041756;23;20235;-80
2023/04/18 12:46:13;;;;;;;7.00;4.80;;;13.70;92.80;;;;;;5056930;22;20306;-80
2023/04/18 12:48:40;;;;;;;5.23;4.60;;;13.70;93.00;;;;;;5050770;22;20229;-80
2023/04/18 12:51:07;;;;;;;7.37;4.50;;;13.70;92.90;;;;;;5070003;28;20232;-80
2023/04/18 12:53:33;;;;;;;5.90;4.50;;;13.70;92.60;;;;;;5050909;22;20225;-80
2023/04/18 12:58:36;;;;;;;6.23;4.43;;;13.60;92.90;;;;;;5079926;22;20334;-82
2023/04/18 13:01:03;;;;;;;8.97;4.70;;;13.60;93.20;;;;;;5066735;28;20268;-80
2023/04/18 13:03:30;;;;;;;6.50;4.77;;;13.60;93.30;;;;;;5062373;22;20233;-81